createdAt,value
2023-04-11T00:05:58.603Z,5.50
2023-04-11T00:16:02.113Z,4.90
2023-04-11T00:26:06.983Z,4.07
2023-04-11T00:36:11.242Z,5.03
2023-04-11T00:46:17.278Z,7.53
2023-04-11T00:56:21.035Z,9.03
2023-04-11T01:06:26.581Z,4.93
2023-04-11T01:16:30.519Z,3.83
2023-04-11T01:26:35.642Z,7.03
2023-04-11T01:36:40.036Z,9.07
2023-04-11T01:46:45.229Z,7.80
2023-04-11T01:56:48.529Z,9.97
2023-04-11T02:06:53.144Z,10.07
2023-04-11T02:16:57.858Z,9.03
2023-04-11T02:27:04.117Z,11.80
2023-04-11T02:37:07.178Z,15.47
2023-04-11T02:47:11.766Z,12.03
2023-04-11T02:57:15.369Z,15.60
2023-04-11T03:07:20.071Z,12.83
2023-04-11T03:17:23.482Z,22.90
2023-04-11T03:27:28.351Z,14.10
2023-04-11T03:37:36.614Z,15.83
2023-04-11T03:47:41.351Z,16.90
2023-04-11T03:57:45.580Z,12.53
2023-04-11T04:07:50.819Z,16.43
2023-04-11T04:18:23.263Z,17.23
2023-04-11T04:28:28.845Z,15.30
2023-04-11T04:38:38.741Z,21.90
2023-04-11T04:48:46.755Z,16.13
2023-04-11T04:58:50.031Z,16.37
2023-04-11T05:08:57.469Z,15.47
2023-04-11T05:19:01.055Z,19.47
2023-04-11T05:29:06.711Z,10.43
2023-04-11T05:39:10.260Z,15.97
2023-04-11T05:49:15.681Z,13.13
2023-04-11T05:59:24.721Z,18.83
2023-04-11T06:09:33.374Z,19.90
2023-04-11T06:19:36.966Z,16.70
2023-04-11T06:29:44.117Z,10.77
2023-04-11T06:39:47.248Z,13.90
2023-04-11T06:49:51.919Z,16.73
2023-04-11T06:59:55.204Z,14.23
2023-04-11T07:09:59.805Z,13.40
2023-04-11T07:20:04.354Z,13.43
2023-04-11T07:30:10.215Z,17.53
2023-04-11T07:40:14.481Z,14.47
2023-04-11T07:50:18.999Z,10.77
2023-04-11T08:00:24.124Z,13.47
2023-04-11T08:10:28.608Z,13.00
2023-04-11T08:20:32.027Z,8.97
2023-04-11T08:30:36.519Z,18.37
2023-04-11T08:40:39.920Z,11.27
2023-04-11T08:50:45.464Z,9.07
2023-04-11T09:00:48.604Z,11.93
2023-04-11T09:10:53.121Z,5.27
2023-04-11T09:21:01.016Z,9.13
2023-04-11T09:31:05.801Z,6.40
2023-04-11T09:41:08.877Z,5.80
2023-04-11T09:51:18.089Z,6.80
2023-04-11T10:01:31.519Z,5.40
2023-04-11T10:11:36.726Z,6.63
2023-04-11T10:21:41.997Z,3.17
2023-04-11T10:32:09.399Z,6.60
2023-04-11T10:42:27.583Z,9.10
2023-04-11T10:52:38.937Z,6.32
2023-04-11T11:02:42.480Z,9.50
2023-04-11T11:12:56.699Z,8.27
2023-04-11T11:23:01.229Z,11.60
2023-04-11T11:33:27.666Z,3.20
2023-04-11T11:43:30.751Z,6.87
2023-04-11T11:53:35.128Z,4.83
2023-04-11T12:03:38.646Z,4.77
2023-04-11T12:13:45.597Z,5.33
2023-04-11T12:23:48.668Z,3.50
2023-04-11T12:33:53.537Z,4.43
2023-04-11T12:43:56.832Z,9.03
2023-04-11T12:54:20.001Z,10.07
2023-04-11T13:04:23.860Z,8.07
2023-04-11T13:14:28.876Z,4.60
2023-04-11T13:24:33.131Z,6.80
2023-04-11T13:34:38.124Z,4.43
2023-04-11T13:44:41.426Z,6.93
2023-04-11T13:54:46.087Z,8.33
2023-04-11T14:04:49.689Z,3.57
2023-04-11T14:14:54.059Z,6.40
2023-04-11T14:24:56.919Z,10.03
2023-04-11T14:35:02.514Z,4.60
2023-04-11T14:45:08.615Z,4.50
2023-04-11T14:55:13.346Z,4.63
2023-04-11T15:05:18.135Z,7.53
2023-04-11T15:15:23.870Z,4.63
2023-04-11T15:25:26.848Z,7.80
2023-04-11T15:35:31.153Z,10.33
2023-04-11T15:45:35.713Z,3.87
2023-04-11T15:55:41.268Z,8.53
2023-04-11T16:05:45.152Z,8.40
2023-04-11T16:15:49.799Z,6.77
2023-04-11T16:25:52.672Z,7.67
2023-04-11T16:35:57.137Z,8.17
2023-04-11T16:46:00.288Z,7.23
2023-04-11T16:56:04.860Z,8.23
2023-04-11T17:06:14.669Z,9.30
2023-04-11T17:16:19.466Z,10.23
2023-04-11T17:26:22.633Z,7.40
2023-04-11T17:36:28.559Z,6.27
2023-04-11T17:46:32.053Z,13.43
2023-04-11T17:56:36.459Z,5.40
2023-04-11T18:06:40.459Z,5.73
2023-04-11T18:16:47.302Z,3.80
2023-04-11T18:26:51.644Z,7.13
2023-04-11T18:36:56.118Z,7.13
2023-04-11T18:47:01.215Z,15.97
2023-04-11T18:57:08.000Z,9.03
2023-04-11T19:07:12.653Z,11.13
2023-04-11T19:17:16.872Z,7.30
2023-04-11T19:27:21.714Z,11.03
2023-04-11T19:37:26.458Z,6.93
2023-04-11T19:47:30.036Z,4.67
2023-04-11T19:57:35.016Z,7.03
2023-04-11T20:07:39.014Z,7.50
2023-04-11T20:17:45.923Z,11.33
2023-04-11T20:27:49.505Z,5.17
2023-04-11T20:37:54.255Z,7.00
2023-04-11T20:47:59.756Z,8.57
2023-04-11T20:58:08.499Z,8.00
2023-04-11T21:08:12.102Z,4.85
2023-04-11T21:18:16.600Z,6.43
2023-04-11T21:28:19.411Z,5.97
2023-04-11T21:38:23.722Z,7.93
2023-04-11T21:48:27.209Z,8.67
2023-04-11T21:58:31.661Z,5.00
2023-04-11T22:08:38.876Z,12.27
2023-04-11T22:18:49.939Z,6.87
2023-04-11T22:28:53.068Z,8.27
2023-04-11T22:38:57.458Z,7.47
2023-04-11T22:49:00.825Z,5.60
2023-04-11T22:59:05.281Z,5.87
2023-04-11T23:09:09.390Z,7.93
2023-04-11T23:19:13.828Z,4.00
2023-04-11T23:29:17.196Z,3.70
2023-04-11T23:39:22.924Z,8.80
2023-04-11T23:49:26.782Z,5.90
2023-04-11T23:59:31.938Z,7.77
